createdAt,value
2023-02-13T00:02:05.580Z,6.80
2023-02-13T00:04:32.495Z,5.65
2023-02-13T00:06:59.326Z,5.90
2023-02-13T00:09:26.218Z,7.32
2023-02-13T00:11:53.101Z,6.40
2023-02-13T00:14:19.974Z,6.47
2023-02-13T00:16:46.888Z,6.22
2023-02-13T00:19:13.821Z,5.97
2023-02-13T00:21:40.725Z,6.90
2023-02-13T00:24:07.730Z,6.60
2023-02-13T00:26:34.584Z,7.00
2023-02-13T00:29:01.526Z,8.02
2023-02-13T00:31:28.480Z,6.65
2023-02-13T00:33:55.360Z,6.22
2023-02-13T00:36:23.354Z,6.43
2023-02-13T00:38:51.402Z,7.22
2023-02-13T00:41:20.244Z,6.53
2023-02-13T00:43:47.855Z,6.90
2023-02-13T00:46:15.674Z,6.88
2023-02-13T00:48:42.881Z,5.97
2023-02-13T00:51:09.975Z,6.70
2023-02-13T00:53:37.804Z,7.43
2023-02-13T00:56:06.297Z,6.30
2023-02-13T00:58:33.965Z,6.20
2023-02-13T01:01:01.058Z,6.30
2023-02-13T01:03:28.018Z,6.15
2023-02-13T01:05:57.094Z,6.90
2023-02-13T01:08:28.350Z,6.30
2023-02-13T01:10:56.326Z,5.65
2023-02-13T01:13:23.524Z,6.05
2023-02-13T01:15:51.528Z,5.85
2023-02-13T01:18:20.393Z,6.47
2023-02-13T01:21:06.103Z,6.15
2023-02-13T01:23:34.920Z,5.53
2023-02-13T01:26:04.786Z,7.05
2023-02-13T01:28:32.446Z,5.50
2023-02-13T01:31:00.356Z,6.10
2023-02-13T01:33:29.547Z,5.70
2023-02-13T01:35:56.550Z,5.72
2023-02-13T01:38:23.549Z,5.60
2023-02-13T01:40:53.200Z,5.63
2023-02-13T01:43:24.321Z,5.50
2023-02-13T01:45:56.394Z,5.75
2023-02-13T01:48:27.374Z,5.65
2023-02-13T01:51:02.980Z,5.70
2023-02-13T01:53:56.649Z,5.00
2023-02-13T01:56:41.095Z,5.35
2023-02-13T01:59:33.741Z,5.70
2023-02-13T02:02:01.536Z,5.40
2023-02-13T02:04:36.233Z,5.65
2023-02-13T02:07:41.113Z,5.78
2023-02-13T02:10:16.860Z,5.82
2023-02-13T02:12:51.173Z,5.45
2023-02-13T02:15:20.282Z,7.03
2023-02-13T02:17:47.564Z,6.35
2023-02-13T02:20:23.345Z,5.97
2023-02-13T02:23:17.288Z,8.43
2023-02-13T02:26:06.561Z,5.82
2023-02-13T02:28:47.090Z,5.88
2023-02-13T02:31:46.891Z,7.50
2023-02-13T02:34:38.988Z,5.70
2023-02-13T02:37:09.064Z,5.65
2023-02-13T02:39:57.140Z,7.28
2023-02-13T02:42:24.073Z,5.80
2023-02-13T02:45:05.665Z,6.18
2023-02-13T02:48:07.318Z,5.70
2023-02-13T02:50:46.353Z,5.35
2023-02-13T02:53:26.859Z,5.93
2023-02-13T02:56:29.931Z,5.53
2023-02-13T02:59:22.587Z,6.40
2023-02-13T03:02:10.261Z,5.38
2023-02-13T03:05:09.712Z,5.57
2023-02-13T03:07:36.647Z,5.32
2023-02-13T03:10:25.968Z,5.43
2023-02-13T03:28:46.194Z,5.43
2023-02-13T03:31:50.411Z,5.82
2023-02-13T03:34:23.731Z,5.30
2023-02-13T03:37:19.778Z,5.55
2023-02-13T03:39:46.588Z,6.00
2023-02-13T03:42:29.087Z,5.47
2023-02-13T03:45:31.836Z,6.15
2023-02-13T03:48:01.552Z,6.05
2023-02-13T03:50:29.412Z,6.35
2023-02-13T03:53:03.221Z,5.97
2023-02-13T03:55:59.726Z,5.70
2023-02-13T03:58:50.572Z,6.50
2023-02-13T04:01:22.354Z,6.00
2023-02-13T04:03:57.046Z,6.53
2023-02-13T04:06:32.975Z,5.90
2023-02-13T04:08:59.906Z,6.68
2023-02-13T04:12:01.529Z,6.53
2023-02-13T04:14:38.733Z,6.70
2023-02-13T04:17:31.418Z,6.25
2023-02-13T04:19:58.361Z,6.65
2023-02-13T04:22:25.248Z,5.90
2023-02-13T04:24:52.139Z,7.47
2023-02-13T04:29:45.972Z,7.00
2023-02-13T04:32:14.262Z,6.20
2023-02-13T04:34:41.080Z,6.93
2023-02-13T04:37:08.066Z,7.50
2023-02-13T04:39:35.446Z,6.38
2023-02-13T04:42:02.323Z,6.88
2023-02-13T04:44:29.205Z,6.90
2023-02-13T04:46:56.050Z,7.40
2023-02-13T04:49:22.958Z,6.88
2023-02-13T04:51:49.765Z,6.88
2023-02-13T04:54:16.566Z,6.43
2023-02-13T04:56:43.466Z,7.78
2023-02-13T04:59:10.289Z,6.55
2023-02-13T05:01:37.218Z,6.35
2023-02-13T05:04:04.308Z,6.50
2023-02-13T05:06:31.191Z,6.70
2023-02-13T05:08:58.047Z,6.57
2023-02-13T05:11:24.933Z,8.07
2023-02-13T05:13:51.742Z,7.18
2023-02-13T05:16:18.652Z,7.30
2023-02-13T05:18:45.482Z,6.40
2023-02-13T05:21:38.455Z,7.32
2023-02-13T05:24:05.647Z,7.40
2023-02-13T05:26:32.736Z,7.30
2023-02-13T05:29:18.265Z,8.23
2023-02-13T05:31:49.991Z,8.60
2023-02-13T05:34:17.099Z,8.50
2023-02-13T05:36:43.999Z,8.38
2023-02-13T05:39:10.916Z,9.00
2023-02-13T05:41:37.773Z,8.50
2023-02-13T05:44:05.067Z,9.90
2023-02-13T05:46:31.937Z,9.27
2023-02-13T05:48:59.042Z,9.02
2023-02-13T05:51:25.973Z,9.65
2023-02-13T05:53:52.897Z,9.73
2023-02-13T05:56:19.805Z,14.07
2023-02-13T05:58:46.676Z,17.20
2023-02-13T06:01:13.868Z,16.02
2023-02-13T06:03:40.709Z,18.67
2023-02-13T06:06:07.814Z,19.13
2023-02-13T06:08:34.807Z,18.02
2023-02-13T06:11:02.199Z,19.10
2023-02-13T06:13:29.390Z,20.55
2023-02-13T06:15:56.787Z,19.25
2023-02-13T06:18:23.774Z,21.30
2023-02-13T06:20:50.694Z,23.58
2023-02-13T06:23:17.913Z,21.20
2023-02-13T06:25:44.745Z,21.73
2023-02-13T06:28:11.617Z,21.83
2023-02-13T06:30:38.504Z,21.35
2023-02-13T06:33:05.409Z,23.45
2023-02-13T06:35:32.265Z,21.98
2023-02-13T06:37:59.119Z,22.17
2023-02-13T06:40:26.096Z,21.52
2023-02-13T06:42:53.081Z,21.77
2023-02-13T06:45:19.970Z,22.10
2023-02-13T06:47:48.582Z,17.60
2023-02-13T06:50:16.837Z,18.48
2023-02-13T06:52:51.399Z,17.77
2023-02-13T06:55:19.094Z,16.77
2023-02-13T06:57:46.892Z,15.93
2023-02-13T07:00:16.115Z,16.75
2023-02-13T07:02:44.338Z,20.88
2023-02-13T07:05:11.906Z,21.02
2023-02-13T07:07:40.719Z,23.90
2023-02-13T07:10:10.648Z,22.38
2023-02-13T07:12:37.735Z,22.67
2023-02-13T07:15:05.851Z,21.67
2023-02-13T07:17:34.042Z,22.38
2023-02-13T07:20:00.977Z,22.33
2023-02-13T07:22:27.920Z,23.73
2023-02-13T07:24:54.870Z,21.58
2023-02-13T07:27:21.738Z,21.15
2023-02-13T07:29:48.649Z,21.10
2023-02-13T07:32:15.598Z,20.48
2023-02-13T07:34:55.816Z,18.38
2023-02-13T07:37:29.331Z,19.70
2023-02-13T07:39:56.159Z,19.52
2023-02-13T07:42:23.169Z,21.30
2023-02-13T07:44:50.174Z,18.38
2023-02-13T07:47:19.027Z,18.60
2023-02-13T07:49:47.114Z,18.38
2023-02-13T07:52:14.053Z,16.60
2023-02-13T07:54:47.712Z,15.80
2023-02-13T07:57:15.513Z,16.83
2023-02-13T07:59:42.346Z,16.10
2023-02-13T08:02:18.258Z,15.73
2023-02-13T08:04:47.848Z,18.30
2023-02-13T08:07:16.693Z,16.77
2023-02-13T08:10:05.823Z,15.52
2023-02-13T08:12:35.821Z,16.65
2023-02-13T08:15:03.213Z,16.05
2023-02-13T08:17:30.072Z,18.98
2023-02-13T08:19:57.039Z,17.02
2023-02-13T08:22:24.091Z,17.35
2023-02-13T08:24:50.922Z,16.95
2023-02-13T08:27:17.792Z,16.25
2023-02-13T08:29:44.687Z,16.55
2023-02-13T08:32:11.643Z,16.77
2023-02-13T08:34:38.611Z,19.48
2023-02-13T08:37:05.406Z,20.48
2023-02-13T08:39:32.338Z,18.27
2023-02-13T08:41:59.238Z,17.00
2023-02-13T08:44:26.177Z,18.40
2023-02-13T08:46:53.160Z,16.95
2023-02-13T08:49:20.293Z,19.92
2023-02-13T08:51:47.157Z,16.50
2023-02-13T08:54:13.974Z,16.73
2023-02-13T08:56:41.721Z,17.63
2023-02-13T08:59:08.798Z,16.58
2023-02-13T09:01:35.726Z,16.67
2023-02-13T09:04:02.623Z,14.82
2023-02-13T09:06:29.668Z,15.13
2023-02-13T09:08:56.692Z,14.15
2023-02-13T09:11:23.660Z,15.05
2023-02-13T09:13:54.645Z,14.07
2023-02-13T09:16:22.249Z,13.63
2023-02-13T09:18:52.659Z,14.95
2023-02-13T09:21:22.797Z,14.02
2023-02-13T09:23:51.103Z,14.05
2023-02-13T09:26:20.796Z,14.75
2023-02-13T09:28:48.109Z,14.68
2023-02-13T09:31:17.968Z,14.13
2023-02-13T09:33:47.082Z,16.23
2023-02-13T09:36:20.203Z,15.13
2023-02-13T09:38:57.865Z,17.58
2023-02-13T09:41:43.177Z,17.35
2023-02-13T09:44:39.202Z,15.43
2023-02-13T09:47:24.338Z,14.10
2023-02-13T09:49:57.231Z,13.85
2023-02-13T09:52:26.534Z,14.25
2023-02-13T09:54:53.448Z,16.23
2023-02-13T09:57:42.606Z,14.80
2023-02-13T10:00:20.192Z,15.77
2023-02-13T10:02:59.383Z,14.93
2023-02-13T10:05:57.468Z,15.48
2023-02-13T10:08:38.810Z,15.20
2023-02-13T10:11:26.125Z,15.55
2023-02-13T10:14:09.547Z,15.32
2023-02-13T10:17:05.542Z,15.50
2023-02-13T10:19:55.455Z,14.27
2023-02-13T10:22:32.019Z,14.32
2023-02-13T10:25:08.495Z,17.42
2023-02-13T10:27:40.181Z,19.25
2023-02-13T10:30:29.245Z,16.25
2023-02-13T10:33:20.328Z,16.35
2023-02-13T10:36:10.243Z,15.10
2023-02-13T10:38:44.745Z,16.00
2023-02-13T10:41:30.303Z,15.25
2023-02-13T10:44:10.994Z,17.08
2023-02-13T10:46:40.887Z,16.42
2023-02-13T10:49:26.509Z,16.70
2023-02-13T10:52:23.228Z,16.67
2023-02-13T10:54:55.966Z,17.27
2023-02-13T10:57:36.556Z,16.58
2023-02-13T11:00:16.280Z,16.85
2023-02-13T11:02:43.181Z,18.25
2023-02-13T11:05:21.506Z,15.20
2023-02-13T11:07:49.804Z,17.70
2023-02-13T11:10:22.720Z,17.05
2023-02-13T11:12:50.341Z,16.83
2023-02-13T11:15:56.640Z,17.02
2023-02-13T11:18:27.080Z,15.93
2023-02-13T11:21:10.811Z,17.30
2023-02-13T11:23:42.768Z,17.27
2023-02-13T11:26:14.810Z,17.42
2023-02-13T11:28:58.180Z,17.00
2023-02-13T11:31:27.049Z,16.25
2023-02-13T11:33:54.379Z,15.98
2023-02-13T11:36:33.771Z,16.20
2023-02-13T11:39:07.415Z,16.02
2023-02-13T11:41:42.673Z,17.52
2023-02-13T11:44:31.658Z,17.77
2023-02-13T11:47:01.351Z,16.65
2023-02-13T11:49:30.503Z,13.68
2023-02-13T11:52:00.783Z,14.70
2023-02-13T11:54:30.966Z,14.35
2023-02-13T11:57:06.323Z,14.52
2023-02-13T11:59:40.875Z,12.57
2023-02-13T12:02:20.218Z,13.48
2023-02-13T12:05:08.359Z,12.50
2023-02-13T12:07:35.198Z,12.10
2023-02-13T12:10:25.342Z,12.77
2023-02-13T12:13:25.535Z,13.98
2023-02-13T12:16:01.016Z,12.55
2023-02-13T12:18:37.466Z,13.20
2023-02-13T12:21:43.136Z,13.75
2023-02-13T12:24:13.126Z,12.88
2023-02-13T12:27:14.748Z,12.40
2023-02-13T12:30:05.901Z,14.18
2023-02-13T12:32:57.024Z,12.93
2023-02-13T12:35:47.029Z,13.07
2023-02-13T12:38:26.003Z,13.60
2023-02-13T12:41:20.197Z,12.90
2023-02-13T12:44:04.535Z,12.95
2023-02-13T12:46:56.826Z,12.43
2023-02-13T12:49:26.453Z,11.82
2023-02-13T12:52:02.412Z,13.93
2023-02-13T12:54:37.499Z,12.70
2023-02-13T12:57:42.241Z,11.95
2023-02-13T13:00:26.821Z,12.07
2023-02-13T13:03:22.675Z,14.82
2023-02-13T13:06:28.039Z,12.95
2023-02-13T13:09:25.881Z,11.65
2023-02-13T13:12:13.971Z,14.60
2023-02-13T13:14:57.115Z,11.00
2023-02-13T13:17:42.806Z,12.38
2023-02-13T13:20:49.160Z,12.40
2023-02-13T13:23:20.627Z,10.77
2023-02-13T13:25:47.482Z,11.13
2023-02-13T13:28:24.923Z,11.63
2023-02-13T13:30:53.812Z,12.40
2023-02-13T13:33:26.266Z,11.35
2023-02-13T13:36:05.809Z,11.82
2023-02-13T13:38:38.517Z,13.55
2023-02-13T13:41:18.167Z,10.82
2023-02-13T13:44:18.636Z,10.82
2023-02-13T13:46:53.313Z,10.85
2023-02-13T13:49:38.141Z,10.15
2023-02-13T13:54:53.749Z,10.38
2023-02-13T13:57:40.874Z,10.20
2023-02-13T14:00:13.573Z,9.35
2023-02-13T14:02:48.518Z,9.98
2023-02-13T14:05:33.451Z,11.55
2023-02-13T14:10:49.968Z,9.88
2023-02-13T14:13:36.135Z,9.75
2023-02-13T14:16:04.947Z,9.43
2023-02-13T14:18:32.535Z,9.85
2023-02-13T14:21:01.917Z,10.18
2023-02-13T14:23:50.767Z,11.18
2023-02-13T14:26:17.632Z,9.43
2023-02-13T14:28:58.693Z,9.80
2023-02-13T14:31:40.696Z,13.25
2023-02-13T14:34:17.145Z,12.90
2023-02-13T14:36:49.064Z,13.65
2023-02-13T14:39:36.440Z,13.18
2023-02-13T14:42:21.773Z,12.38
2023-02-13T14:44:57.206Z,13.27
2023-02-13T14:47:30.500Z,13.90
2023-02-13T14:49:59.527Z,13.20
2023-02-13T14:52:33.145Z,12.48
2023-02-13T14:55:04.460Z,14.07
2023-02-13T14:57:37.979Z,13.15
2023-02-13T15:00:17.491Z,13.00
2023-02-13T15:02:53.294Z,13.38
2023-02-13T15:05:21.886Z,14.75
2023-02-13T15:08:17.207Z,14.20
2023-02-13T15:10:53.453Z,14.18
2023-02-13T15:13:35.236Z,15.27
2023-02-13T15:16:02.515Z,14.15
2023-02-13T15:30:01.721Z,15.30
2023-02-13T15:32:34.915Z,17.58
2023-02-13T15:35:01.915Z,16.08
2023-02-13T15:37:30.824Z,13.50
2023-02-13T15:40:17.780Z,15.80
2023-02-13T15:42:45.001Z,15.45
2023-02-13T15:45:18.008Z,16.05
2023-02-13T15:47:46.885Z,16.02
2023-02-13T15:50:31.054Z,15.60
2023-02-13T15:53:00.044Z,15.13
2023-02-13T15:55:29.171Z,16.27
2023-02-13T15:57:59.141Z,16.73
2023-02-13T16:00:30.808Z,16.27
2023-02-13T16:02:59.342Z,17.33
2023-02-13T16:05:39.367Z,17.27
2023-02-13T16:08:40.709Z,19.38
2023-02-13T16:11:24.108Z,18.75
2023-02-13T16:14:20.993Z,17.40
2023-02-13T16:17:05.991Z,17.35
2023-02-13T16:19:37.174Z,18.80
2023-02-13T16:22:27.307Z,19.70
2023-02-13T16:25:04.168Z,18.60
2023-02-13T16:27:31.359Z,23.50
2023-02-13T16:30:01.038Z,21.58
2023-02-13T16:32:41.719Z,22.63
2023-02-13T16:35:30.789Z,24.95
2023-02-13T16:38:02.348Z,29.17
2023-02-13T16:40:42.820Z,27.77
2023-02-13T16:43:34.235Z,31.27
2023-02-13T16:46:19.381Z,27.33
2023-02-13T16:49:01.341Z,26.77
2023-02-13T16:51:42.752Z,28.92
2023-02-13T16:54:16.001Z,28.88
2023-02-13T16:56:54.048Z,29.17
2023-02-13T16:59:43.886Z,33.42
2023-02-13T17:02:25.202Z,31.52
2023-02-13T17:05:20.793Z,31.98
2023-02-13T17:07:53.308Z,31.55
2023-02-13T17:10:35.402Z,31.10
2023-02-13T17:13:19.439Z,28.85
2023-02-13T17:15:48.026Z,30.27
2023-02-13T17:18:14.972Z,32.92
2023-02-13T17:20:44.156Z,33.97
2023-02-13T17:23:22.388Z,33.13
2023-02-13T17:25:52.006Z,32.72
2023-02-13T17:28:21.228Z,29.42
2023-02-13T17:30:51.176Z,27.08
2023-02-13T17:33:22.229Z,27.48
2023-02-13T17:35:49.683Z,45.60
2023-02-13T17:38:16.849Z,28.35
2023-02-13T17:40:44.852Z,22.85
2023-02-13T17:43:13.825Z,19.85
2023-02-13T17:45:40.903Z,21.05
2023-02-13T17:48:08.174Z,19.10
2023-02-13T17:50:35.625Z,18.20
2023-02-13T17:53:05.867Z,24.02
2023-02-13T17:55:34.514Z,26.35
2023-02-13T17:58:02.234Z,25.33
2023-02-13T18:00:32.018Z,31.98
2023-02-13T18:03:00.710Z,28.98
2023-02-13T18:05:28.338Z,32.92
2023-02-13T18:07:55.758Z,35.13
2023-02-13T18:10:26.057Z,37.47
2023-02-13T18:12:54.519Z,35.25
2023-02-13T18:15:21.446Z,27.30
2023-02-13T18:17:48.371Z,27.65
2023-02-13T18:20:18.263Z,25.80
2023-02-13T18:22:45.413Z,24.70
2023-02-13T18:25:13.436Z,24.40
2023-02-13T18:27:40.522Z,24.98
2023-02-13T18:30:08.671Z,24.00
2023-02-13T18:32:35.812Z,25.45
2023-02-13T18:35:02.841Z,25.33
2023-02-13T18:37:30.210Z,27.20
2023-02-13T18:39:57.093Z,30.63
2023-02-13T18:42:24.003Z,35.20
2023-02-13T18:44:51.017Z,34.20
2023-02-13T18:47:18.206Z,38.40
2023-02-13T18:49:47.919Z,40.13
2023-02-13T18:52:15.352Z,38.50
2023-02-13T18:54:42.152Z,41.10
2023-02-13T18:57:09.395Z,40.38
2023-02-13T18:59:36.241Z,37.70
2023-02-13T19:02:04.381Z,37.90
2023-02-13T19:04:31.730Z,42.22
2023-02-13T19:06:58.663Z,39.00
2023-02-13T19:09:25.456Z,40.35
2023-02-13T19:11:52.537Z,43.03
2023-02-13T19:14:19.847Z,39.72
2023-02-13T19:16:46.939Z,37.28
2023-02-13T19:19:16.980Z,40.70
2023-02-13T19:21:44.032Z,41.13
2023-02-13T19:24:15.465Z,39.33
2023-02-13T19:26:42.675Z,43.85
2023-02-13T19:29:09.605Z,41.03
2023-02-13T19:31:36.632Z,41.47
2023-02-13T19:34:05.885Z,44.97
2023-02-13T19:36:33.183Z,41.33
2023-02-13T19:39:05.393Z,42.60
2023-02-13T19:41:33.162Z,45.10
2023-02-13T19:44:01.192Z,41.50
2023-02-13T19:46:30.473Z,45.65
2023-02-13T19:48:58.059Z,47.60
2023-02-13T19:51:27.864Z,45.35
2023-02-13T19:54:01.227Z,46.20
2023-02-13T19:56:29.646Z,46.33
2023-02-13T19:58:56.953Z,43.70
2023-02-13T20:01:25.695Z,44.28
2023-02-13T20:03:53.739Z,44.20
2023-02-13T20:06:27.947Z,45.00
2023-02-13T20:08:58.298Z,42.40
2023-02-13T20:11:25.585Z,42.75
2023-02-13T20:13:57.596Z,47.47
2023-02-13T20:16:24.528Z,42.75
2023-02-13T20:18:51.554Z,44.17
2023-02-13T20:21:19.461Z,42.10
2023-02-13T20:23:51.809Z,41.85
2023-02-13T20:26:19.537Z,43.45
2023-02-13T20:28:48.100Z,40.97
2023-02-13T20:31:20.961Z,40.92
2023-02-13T20:33:49.719Z,41.75
2023-02-13T20:36:22.328Z,42.47
2023-02-13T20:38:50.700Z,41.58
2023-02-13T20:41:19.825Z,43.53
2023-02-13T20:43:47.217Z,43.30
2023-02-13T20:46:18.083Z,36.97
2023-02-13T20:48:47.447Z,40.47
2023-02-13T20:51:16.931Z,39.92
2023-02-13T20:53:45.153Z,38.28
2023-02-13T20:56:12.053Z,38.97
2023-02-13T20:58:41.337Z,39.88
2023-02-13T21:01:30.030Z,38.95
2023-02-13T21:03:57.497Z,38.38
2023-02-13T21:06:35.991Z,38.38
2023-02-13T21:09:05.591Z,35.45
2023-02-13T21:11:34.473Z,36.92
2023-02-13T21:14:02.428Z,33.95
2023-02-13T21:16:35.467Z,33.30
2023-02-13T21:19:06.436Z,33.35
2023-02-13T21:21:34.591Z,34.13
2023-02-13T21:24:08.091Z,31.42
2023-02-13T21:26:36.077Z,31.10
2023-02-13T21:29:04.138Z,33.92
2023-02-13T21:31:37.162Z,32.85
2023-02-13T21:34:06.586Z,37.03
2023-02-13T21:36:35.431Z,38.75
2023-02-13T21:39:03.589Z,36.22
2023-02-13T21:41:30.512Z,37.67
2023-02-13T21:43:57.507Z,37.28
2023-02-13T21:46:30.196Z,37.63
2023-02-13T21:48:59.801Z,36.92
2023-02-13T21:51:28.517Z,37.17
2023-02-13T21:53:56.071Z,35.78
2023-02-13T21:56:25.732Z,36.90
2023-02-13T21:58:53.267Z,36.17
2023-02-13T22:01:26.416Z,36.22
2023-02-13T22:03:57.297Z,36.28
2023-02-13T22:06:25.624Z,36.40
2023-02-13T22:09:01.320Z,35.08
2023-02-13T22:11:28.960Z,34.00
2023-02-13T22:13:57.751Z,31.95
2023-02-13T22:16:25.081Z,35.30
2023-02-13T22:18:52.055Z,36.50
2023-02-13T22:21:21.700Z,36.53
2023-02-13T22:23:51.353Z,34.45
2023-02-13T22:26:38.964Z,34.75
2023-02-13T22:29:09.475Z,34.80
2023-02-13T22:31:36.643Z,35.50
2023-02-13T22:34:05.549Z,36.50
2023-02-13T22:36:40.334Z,36.63
2023-02-13T22:41:36.754Z,34.75
2023-02-13T22:44:04.115Z,38.15
2023-02-13T22:46:33.107Z,35.95
2023-02-13T22:49:00.296Z,37.05
2023-02-13T22:51:32.812Z,40.00
2023-02-13T22:54:00.221Z,40.03
2023-02-13T22:56:29.187Z,37.63
2023-02-13T22:58:56.964Z,39.55
2023-02-13T23:01:26.216Z,38.33
2023-02-13T23:03:53.509Z,37.33
2023-02-13T23:06:21.939Z,39.22
2023-02-13T23:08:52.580Z,39.88
2023-02-13T23:11:40.220Z,38.53
2023-02-13T23:14:07.397Z,43.17
2023-02-13T23:16:54.362Z,40.13
2023-02-13T23:19:21.947Z,39.90
2023-02-13T23:21:49.265Z,43.67
2023-02-13T23:24:16.482Z,44.50
2023-02-13T23:26:43.554Z,45.92
2023-02-13T23:29:10.510Z,46.75
2023-02-13T23:31:37.931Z,42.45
2023-02-13T23:34:04.785Z,44.35
2023-02-13T23:36:31.630Z,44.45
2023-02-13T23:38:58.542Z,45.75
2023-02-13T23:41:25.359Z,41.67
2023-02-13T23:43:52.284Z,43.45
2023-02-13T23:46:19.197Z,40.88
2023-02-13T23:48:46.484Z,39.38
2023-02-13T23:51:13.578Z,38.25
2023-02-13T23:53:40.555Z,40.03
2023-02-13T23:56:07.978Z,39.42
2023-02-13T23:58:35.088Z,39.20
